sensor_id;sensor_type;location;lat;lon;timestamp;pressure;altitude;pressure_sealevel;temperature;humidity
32933;BME280;19444;50.518;10.870;2023-02-26T00:02:08;95958.00;;;-2.92;100.00
32933;BME280;19444;50.518;10.870;2023-02-26T00:05:07;95962.50;;;-3.04;100.00
32933;BME280;19444;50.518;10.870;2023-02-26T00:08:04;95961.19;;;-2.90;100.00
32933;BME280;19444;50.518;10.870;2023-02-26T00:11:06;95959.59;;;-2.74;100.00
32933;BME280;19444;50.518;10.870;2023-02-26T00:14:03;95959.53;;;-2.79;100.00
32933;BME280;19444;50.518;10.870;2023-02-26T00:20:26;95974.97;;;-2.66;100.00
32933;BME280;19444;50.518;10.870;2023-02-26T00:23:23;95971.63;;;-2.78;100.00
32933;BME280;19444;50.518;10.870;2023-02-26T00:26:24;95973.81;;;-2.87;100.00
32933;BME280;19444;50.518;10.870;2023-02-26T00:29:22;95976.06;;;-2.79;100.00
32933;BME280;19444;50.518;10.870;2023-02-26T00:32:19;95981.25;;;-2.67;100.00
32933;BME280;19444;50.518;10.870;2023-02-26T00:35:17;95991.97;;;-2.69;100.00
32933;BME280;19444;50.518;10.870;2023-02-26T00:38:16;95994.19;;;-2.77;100.00
32933;BME280;19444;50.518;10.870;2023-02-26T00:41:14;95990.94;;;-2.68;100.00
32933;BME280;19444;50.518;10.870;2023-02-26T00:44:11;95992.72;;;-3.13;100.00
32933;BME280;19444;50.518;10.870;2023-02-26T00:51:01;95998.41;;;-3.05;100.00
32933;BME280;19444;50.518;10.870;2023-02-26T00:54:25;95987.53;;;-2.97;100.00
32933;BME280;19444;50.518;10.870;2023-02-26T00:57:23;95986.88;;;-3.04;100.00
32933;BME280;19444;50.518;10.870;2023-02-26T01:00:20;95983.81;;;-2.84;100.00
32933;BME280;19444;50.518;10.870;2023-02-26T01:03:17;95981.81;;;-3.10;100.00
32933;BME280;19444;50.518;10.870;2023-02-26T01:06:17;95976.16;;;-3.02;100.00
32933;BME280;19444;50.518;10.870;2023-02-26T01:09:35;95976.31;;;-2.80;100.00
32933;BME280;19444;50.518;10.870;2023-02-26T01:12:32;95985.59;;;-3.18;100.00
32933;BME280;19444;50.518;10.870;2023-02-26T01:15:30;95986.63;;;-2.91;100.00
32933;BME280;19444;50.518;10.870;2023-02-26T01:18:52;95990.28;;;-2.75;100.00
32933;BME280;19444;50.518;10.870;2023-02-26T01:21:59;95993.44;;;-2.90;100.00
32933;BME280;19444;50.518;10.870;2023-02-26T01:25:11;96002.91;;;-2.89;100.00
32933;BME280;19444;50.518;10.870;2023-02-26T01:28:08;95993.75;;;-2.86;100.00
32933;BME280;19444;50.518;10.870;2023-02-26T01:31:56;95998.31;;;-3.10;100.00
32933;BME280;19444;50.518;10.870;2023-02-26T01:34:44;95982.59;;;-2.81;100.00
32933;BME280;19444;50.518;10.870;2023-02-26T01:37:59;95994.44;;;-2.62;100.00
32933;BME280;19444;50.518;10.870;2023-02-26T01:41:39;95992.78;;;-2.97;100.00
32933;BME280;19444;50.518;10.870;2023-02-26T01:45:00;95989.84;;;-3.00;100.00
32933;BME280;19444;50.518;10.870;2023-02-26T01:48:12;95991.72;;;-2.67;100.00
32933;BME280;19444;50.518;10.870;2023-02-26T01:51:14;95991.22;;;-2.36;100.00
32933;BME280;19444;50.518;10.870;2023-02-26T01:54:12;95998.53;;;-3.11;100.00
32933;BME280;19444;50.518;10.870;2023-02-26T01:57:14;96002.94;;;-3.29;100.00
32933;BME280;19444;50.518;10.870;2023-02-26T02:00:14;95999.28;;;-3.28;100.00
32933;BME280;19444;50.518;10.870;2023-02-26T02:03:12;96008.50;;;-2.97;100.00
32933;BME280;19444;50.518;10.870;2023-02-26T02:06:20;96011.47;;;-3.33;100.00
32933;BME280;19444;50.518;10.870;2023-02-26T02:09:18;96019.16;;;-3.15;100.00
32933;BME280;19444;50.518;10.870;2023-02-26T02:19:17;96031.59;;;-2.82;100.00
32933;BME280;19444;50.518;10.870;2023-02-26T02:22:39;96027.59;;;-2.84;100.00
32933;BME280;19444;50.518;10.870;2023-02-26T02:26:09;96023.13;;;-2.72;100.00
32933;BME280;19444;50.518;10.870;2023-02-26T02:29:54;96022.38;;;-2.56;100.00
32933;BME280;19444;50.518;10.870;2023-02-26T02:33:04;96026.31;;;-2.70;100.00
32933;BME280;19444;50.518;10.870;2023-02-26T02:36:19;96028.50;;;-2.79;100.00
32933;BME280;19444;50.518;10.870;2023-02-26T02:39:27;96033.88;;;-2.86;100.00
32933;BME280;19444;50.518;10.870;2023-02-26T02:42:34;96031.00;;;-3.01;100.00
32933;BME280;19444;50.518;10.870;2023-02-26T02:45:51;96040.72;;;-2.56;100.00
32933;BME280;19444;50.518;10.870;2023-02-26T02:49:02;96037.09;;;-2.67;100.00
32933;BME280;19444;50.518;10.870;2023-02-26T02:52:13;96042.13;;;-2.65;100.00
32933;BME280;19444;50.518;10.870;2023-02-26T02:55:20;96043.53;;;-2.74;100.00
32933;BME280;19444;50.518;10.870;2023-02-26T02:58:23;96049.53;;;-2.62;100.00
32933;BME280;19444;50.518;10.870;2023-02-26T03:01:22;96051.63;;;-2.76;100.00
32933;BME280;19444;50.518;10.870;2023-02-26T03:04:21;96046.00;;;-2.68;100.00
32933;BME280;19444;50.518;10.870;2023-02-26T03:07:18;96042.53;;;-2.57;100.00
32933;BME280;19444;50.518;10.870;2023-02-26T03:10:16;96052.28;;;-2.69;100.00
32933;BME280;19444;50.518;10.870;2023-02-26T03:13:20;96059.66;;;-2.94;100.00
32933;BME280;19444;50.518;10.870;2023-02-26T03:16:59;96053.59;;;-2.54;100.00
32933;BME280;19444;50.518;10.870;2023-02-26T03:23:27;96076.88;;;-2.87;100.00
32933;BME280;19444;50.518;10.870;2023-02-26T03:26:38;96074.75;;;-3.01;100.00
32933;BME280;19444;50.518;10.870;2023-02-26T03:30:31;96077.00;;;-2.93;100.00
32933;BME280;19444;50.518;10.870;2023-02-26T03:33:22;96080.09;;;-2.96;100.00
32933;BME280;19444;50.518;10.870;2023-02-26T03:39:32;96081.06;;;-2.86;100.00
32933;BME280;19444;50.518;10.870;2023-02-26T03:42:43;96088.16;;;-2.58;100.00
32933;BME280;19444;50.518;10.870;2023-02-26T03:45:42;96094.84;;;-2.78;100.00
32933;BME280;19444;50.518;10.870;2023-02-26T03:48:42;96096.44;;;-2.77;100.00
32933;BME280;19444;50.518;10.870;2023-02-26T03:51:43;96099.81;;;-2.65;100.00
32933;BME280;19444;50.518;10.870;2023-02-26T03:54:48;96110.38;;;-2.89;100.00
32933;BME280;19444;50.518;10.870;2023-02-26T03:57:47;96106.31;;;-2.96;100.00
32933;BME280;19444;50.518;10.870;2023-02-26T04:00:54;96113.56;;;-2.87;100.00
32933;BME280;19444;50.518;10.870;2023-02-26T04:04:08;96117.69;;;-2.91;100.00
32933;BME280;19444;50.518;10.870;2023-02-26T04:07:12;96124.22;;;-3.05;100.00
32933;BME280;19444;50.518;10.870;2023-02-26T04:10:12;96126.16;;;-3.12;100.00
32933;BME280;19444;50.518;10.870;2023-02-26T04:13:10;96132.25;;;-2.71;100.00
32933;BME280;19444;50.518;10.870;2023-02-26T04:16:06;96126.03;;;-3.05;100.00
32933;BME280;19444;50.518;10.870;2023-02-26T04:19:03;96135.03;;;-3.01;100.00
32933;BME280;19444;50.518;10.870;2023-02-26T04:22:00;96150.50;;;-2.88;100.00
32933;BME280;19444;50.518;10.870;2023-02-26T04:24:57;96145.19;;;-3.17;100.00
32933;BME280;19444;50.518;10.870;2023-02-26T04:27:54;96147.22;;;-2.95;100.00
32933;BME280;19444;50.518;10.870;2023-02-26T04:30:51;96150.63;;;-2.95;100.00
32933;BME280;19444;50.518;10.870;2023-02-26T04:33:48;96150.53;;;-3.11;100.00
32933;BME280;19444;50.518;10.870;2023-02-26T04:36:45;96152.59;;;-3.13;100.00
32933;BME280;19444;50.518;10.870;2023-02-26T04:39:41;96151.66;;;-2.96;100.00
32933;BME280;19444;50.518;10.870;2023-02-26T04:42:38;96160.75;;;-2.87;100.00
32933;BME280;19444;50.518;10.870;2023-02-26T04:45:35;96157.31;;;-2.64;100.00
32933;BME280;19444;50.518;10.870;2023-02-26T04:48:32;96161.59;;;-2.98;100.00
32933;BME280;19444;50.518;10.870;2023-02-26T04:51:29;96172.53;;;-3.01;100.00
32933;BME280;19444;50.518;10.870;2023-02-26T04:54:26;96171.28;;;-3.10;100.00
32933;BME280;19444;50.518;10.870;2023-02-26T04:57:22;96184.16;;;-3.20;100.00
32933;BME280;19444;50.518;10.870;2023-02-26T05:00:20;96177.13;;;-3.20;100.00
32933;BME280;19444;50.518;10.870;2023-02-26T05:03:18;96189.75;;;-3.05;100.00
32933;BME280;19444;50.518;10.870;2023-02-26T05:06:14;96200.81;;;-3.26;100.00
32933;BME280;19444;50.518;10.870;2023-02-26T05:09:12;96203.88;;;-3.18;100.00
32933;BME280;19444;50.518;10.870;2023-02-26T05:12:09;96203.84;;;-2.94;100.00
32933;BME280;19444;50.518;10.870;2023-02-26T05:15:06;96212.75;;;-3.30;100.00
32933;BME280;19444;50.518;10.870;2023-02-26T05:18:03;96214.69;;;-3.14;100.00
32933;BME280;19444;50.518;10.870;2023-02-26T05:21:00;96210.00;;;-3.12;100.00
32933;BME280;19444;50.518;10.870;2023-02-26T05:23:57;96222.78;;;-3.16;100.00
32933;BME280;19444;50.518;10.870;2023-02-26T05:26:54;96224.16;;;-3.01;100.00
32933;BME280;19444;50.518;10.870;2023-02-26T05:29:51;96228.16;;;-3.10;100.00
32933;BME280;19444;50.518;10.870;2023-02-26T05:32:48;96234.75;;;-2.96;100.00
32933;BME280;19444;50.518;10.870;2023-02-26T05:35:45;96230.53;;;-2.74;100.00
32933;BME280;19444;50.518;10.870;2023-02-26T05:38:42;96239.31;;;-3.03;100.00
32933;BME280;19444;50.518;10.870;2023-02-26T05:41:39;96245.44;;;-3.21;100.00
32933;BME280;19444;50.518;10.870;2023-02-26T05:44:36;96244.09;;;-3.12;100.00
32933;BME280;19444;50.518;10.870;2023-02-26T05:47:34;96239.78;;;-2.83;100.00
32933;BME280;19444;50.518;10.870;2023-02-26T05:50:31;96257.97;;;-3.23;100.00
32933;BME280;19444;50.518;10.870;2023-02-26T05:53:28;96262.66;;;-3.25;100.00
32933;BME280;19444;50.518;10.870;2023-02-26T05:56:25;96271.47;;;-2.96;100.00
32933;BME280;19444;50.518;10.870;2023-02-26T05:59:22;96273.41;;;-2.92;100.00
32933;BME280;19444;50.518;10.870;2023-02-26T06:02:19;96265.84;;;-3.11;100.00
32933;BME280;19444;50.518;10.870;2023-02-26T06:05:16;96266.88;;;-3.12;100.00
32933;BME280;19444;50.518;10.870;2023-02-26T06:08:13;96274.50;;;-3.11;100.00
32933;BME280;19444;50.518;10.870;2023-02-26T06:11:12;96288.44;;;-2.87;100.00
32933;BME280;19444;50.518;10.870;2023-02-26T06:14:09;96293.69;;;-2.75;100.00
32933;BME280;19444;50.518;10.870;2023-02-26T06:17:06;96297.91;;;-2.98;100.00
32933;BME280;19444;50.518;10.870;2023-02-26T06:20:05;96301.31;;;-3.09;100.00
32933;BME280;19444;50.518;10.870;2023-02-26T06:23:02;96310.59;;;-2.83;100.00
32933;BME280;19444;50.518;10.870;2023-02-26T06:25:59;96309.03;;;-3.14;100.00
32933;BME280;19444;50.518;10.870;2023-02-26T06:28:56;96318.63;;;-3.20;100.00
32933;BME280;19444;50.518;10.870;2023-02-26T06:31:53;96318.88;;;-2.74;100.00
32933;BME280;19444;50.518;10.870;2023-02-26T06:34:50;96331.06;;;-3.03;100.00
32933;BME280;19444;50.518;10.870;2023-02-26T06:37:46;96327.53;;;-2.97;100.00
32933;BME280;19444;50.518;10.870;2023-02-26T06:40:44;96337.59;;;-2.82;100.00
32933;BME280;19444;50.518;10.870;2023-02-26T06:43:41;96350.94;;;-2.72;100.00
32933;BME280;19444;50.518;10.870;2023-02-26T06:46:38;96351.59;;;-2.89;100.00
32933;BME280;19444;50.518;10.870;2023-02-26T06:49:35;96349.91;;;-2.71;100.00
32933;BME280;19444;50.518;10.870;2023-02-26T06:52:32;96366.69;;;-2.72;100.00
32933;BME280;19444;50.518;10.870;2023-02-26T06:55:29;96366.78;;;-2.67;100.00
32933;BME280;19444;50.518;10.870;2023-02-26T06:58:26;96372.72;;;-2.72;100.00
32933;BME280;19444;50.518;10.870;2023-02-26T07:01:22;96380.34;;;-2.82;100.00
32933;BME280;19444;50.518;10.870;2023-02-26T07:04:20;96386.41;;;-2.58;100.00
32933;BME280;19444;50.518;10.870;2023-02-26T07:07:17;96387.75;;;-2.79;100.00
32933;BME280;19444;50.518;10.870;2023-02-26T07:10:14;96388.00;;;-2.69;100.00
32933;BME280;19444;50.518;10.870;2023-02-26T07:13:11;96406.13;;;-2.67;100.00
32933;BME280;19444;50.518;10.870;2023-02-26T07:16:08;96409.22;;;-2.70;100.00
32933;BME280;19444;50.518;10.870;2023-02-26T07:19:06;96417.53;;;-2.73;100.00
32933;BME280;19444;50.518;10.870;2023-02-26T07:22:02;96413.19;;;-2.79;100.00
32933;BME280;19444;50.518;10.870;2023-02-26T07:24:59;96413.75;;;-2.77;100.00
32933;BME280;19444;50.518;10.870;2023-02-26T07:27:56;96423.13;;;-2.58;100.00
32933;BME280;19444;50.518;10.870;2023-02-26T07:30:56;96429.97;;;-2.69;100.00
32933;BME280;19444;50.518;10.870;2023-02-26T07:33:53;96433.47;;;-2.75;100.00
32933;BME280;19444;50.518;10.870;2023-02-26T07:36:50;96442.13;;;-2.74;100.00
32933;BME280;19444;50.518;10.870;2023-02-26T07:39:47;96443.63;;;-2.78;100.00
32933;BME280;19444;50.518;10.870;2023-02-26T07:42:44;96453.94;;;-2.53;100.00
32933;BME280;19444;50.518;10.870;2023-02-26T07:45:40;96443.13;;;-2.45;100.00
32933;BME280;19444;50.518;10.870;2023-02-26T07:48:38;96453.72;;;-2.40;100.00
32933;BME280;19444;50.518;10.870;2023-02-26T07:51:36;96462.41;;;-2.40;100.00
32933;BME280;19444;50.518;10.870;2023-02-26T07:54:36;96460.72;;;-2.22;100.00
32933;BME280;19444;50.518;10.870;2023-02-26T07:57:33;96470.88;;;-2.26;100.00
32933;BME280;19444;50.518;10.870;2023-02-26T08:00:30;96467.44;;;-2.03;100.00
32933;BME280;19444;50.518;10.870;2023-02-26T08:03:27;96475.09;;;-2.13;100.00
32933;BME280;19444;50.518;10.870;2023-02-26T08:06:24;96484.81;;;-1.79;100.00
32933;BME280;19444;50.518;10.870;2023-02-26T08:09:22;96475.66;;;-1.76;100.00
32933;BME280;19444;50.518;10.870;2023-02-26T08:12:19;96484.38;;;-1.99;100.00
32933;BME280;19444;50.518;10.870;2023-02-26T08:15:16;96484.41;;;-1.47;100.00
32933;BME280;19444;50.518;10.870;2023-02-26T08:18:13;96489.16;;;-1.73;100.00
32933;BME280;19444;50.518;10.870;2023-02-26T08:21:10;96489.50;;;-2.04;100.00
32933;BME280;19444;50.518;10.870;2023-02-26T08:24:10;96500.59;;;-1.90;100.00
32933;BME280;19444;50.518;10.870;2023-02-26T08:27:07;96512.00;;;-1.61;100.00
32933;BME280;19444;50.518;10.870;2023-02-26T08:30:05;96515.28;;;-2.13;100.00
32933;BME280;19444;50.518;10.870;2023-02-26T08:33:03;96519.75;;;-1.90;100.00
32933;BME280;19444;50.518;10.870;2023-02-26T08:36:00;96533.34;;;-1.81;100.00
32933;BME280;19444;50.518;10.870;2023-02-26T08:38:57;96531.75;;;-1.82;100.00
32933;BME280;19444;50.518;10.870;2023-02-26T08:41:54;96541.94;;;-1.62;100.00
32933;BME280;19444;50.518;10.870;2023-02-26T08:44:51;96549.22;;;-1.53;100.00
32933;BME280;19444;50.518;10.870;2023-02-26T08:47:48;96549.66;;;-1.56;100.00
32933;BME280;19444;50.518;10.870;2023-02-26T08:50:52;96563.97;;;-1.63;100.00
32933;BME280;19444;50.518;10.870;2023-02-26T08:53:49;96553.94;;;-1.55;100.00
32933;BME280;19444;50.518;10.870;2023-02-26T08:56:46;96570.13;;;-1.58;100.00
32933;BME280;19444;50.518;10.870;2023-02-26T08:59:43;96568.41;;;-1.40;100.00
32933;BME280;19444;50.518;10.870;2023-02-26T09:02:41;96581.00;;;-1.42;100.00
32933;BME280;19444;50.518;10.870;2023-02-26T09:05:38;96582.34;;;-1.75;100.00
32933;BME280;19444;50.518;10.870;2023-02-26T09:08:36;96585.09;;;-1.58;100.00
32933;BME280;19444;50.518;10.870;2023-02-26T09:11:33;96593.91;;;-1.41;100.00
32933;BME280;19444;50.518;10.870;2023-02-26T09:14:32;96598.88;;;-1.86;100.00
32933;BME280;19444;50.518;10.870;2023-02-26T09:17:29;96608.50;;;-1.92;100.00
32933;BME280;19444;50.518;10.870;2023-02-26T09:20:26;96608.28;;;-1.67;100.00
32933;BME280;19444;50.518;10.870;2023-02-26T09:23:23;96612.97;;;-1.10;100.00
32933;BME280;19444;50.518;10.870;2023-02-26T09:26:20;96620.19;;;-1.18;100.00
32933;BME280;19444;50.518;10.870;2023-02-26T09:29:17;96613.47;;;-1.37;100.00
32933;BME280;19444;50.518;10.870;2023-02-26T09:32:14;96629.94;;;-1.83;100.00
32933;BME280;19444;50.518;10.870;2023-02-26T09:35:11;96629.19;;;-1.72;100.00
32933;BME280;19444;50.518;10.870;2023-02-26T09:38:08;96641.69;;;-1.97;100.00
32933;BME280;19444;50.518;10.870;2023-02-26T09:41:39;96634.63;;;-1.97;100.00
32933;BME280;19444;50.518;10.870;2023-02-26T09:44:37;96648.63;;;-2.03;100.00
32933;BME280;19444;50.518;10.870;2023-02-26T09:47:46;96656.16;;;-2.07;100.00
32933;BME280;19444;50.518;10.870;2023-02-26T09:50:51;96656.44;;;-2.26;100.00
32933;BME280;19444;50.518;10.870;2023-02-26T09:53:49;96657.91;;;-2.01;100.00
32933;BME280;19444;50.518;10.870;2023-02-26T09:56:47;96659.94;;;-1.61;100.00
32933;BME280;19444;50.518;10.870;2023-02-26T09:59:46;96660.72;;;-2.02;100.00
32933;BME280;19444;50.518;10.870;2023-02-26T10:03:06;96666.84;;;-1.90;100.00
32933;BME280;19444;50.518;10.870;2023-02-26T10:06:20;96672.63;;;-1.99;100.00
32933;BME280;19444;50.518;10.870;2023-02-26T10:12:41;96673.38;;;-1.81;100.00
32933;BME280;19444;50.518;10.870;2023-02-26T10:15:41;96694.56;;;-1.64;100.00
32933;BME280;19444;50.518;10.870;2023-02-26T10:18:51;96690.03;;;-1.87;100.00
32933;BME280;19444;50.518;10.870;2023-02-26T10:21:53;96692.47;;;-1.74;100.00
32933;BME280;19444;50.518;10.870;2023-02-26T10:25:40;96697.34;;;-1.77;100.00
32933;BME280;19444;50.518;10.870;2023-02-26T10:29:46;96700.28;;;-1.55;100.00
32933;BME280;19444;50.518;10.870;2023-02-26T10:32:27;96718.31;;;-1.47;100.00
32933;BME280;19444;50.518;10.870;2023-02-26T10:35:30;96717.81;;;-1.26;100.00
32933;BME280;19444;50.518;10.870;2023-02-26T10:38:30;96716.31;;;-1.22;100.00
32933;BME280;19444;50.518;10.870;2023-02-26T10:41:31;96719.06;;;-1.17;100.00
32933;BME280;19444;50.518;10.870;2023-02-26T10:51:45;96730.34;;;-1.39;100.00
32933;BME280;19444;50.518;10.870;2023-02-26T10:55:04;96726.41;;;-1.07;100.00
32933;BME280;19444;50.518;10.870;2023-02-26T10:58:15;96726.16;;;-0.70;100.00
32933;BME280;19444;50.518;10.870;2023-02-26T11:01:19;96733.09;;;-0.41;100.00
32933;BME280;19444;50.518;10.870;2023-02-26T11:04:21;96732.09;;;-0.75;100.00
32933;BME280;19444;50.518;10.870;2023-02-26T11:07:19;96743.75;;;-1.29;100.00
32933;BME280;19444;50.518;10.870;2023-02-26T11:10:22;96751.28;;;-1.21;100.00
32933;BME280;19444;50.518;10.870;2023-02-26T11:13:31;96746.84;;;-1.21;100.00
32933;BME280;19444;50.518;10.870;2023-02-26T11:16:28;96752.16;;;-1.51;100.00
32933;BME280;19444;50.518;10.870;2023-02-26T11:19:35;96754.53;;;-1.61;100.00
32933;BME280;19444;50.518;10.870;2023-02-26T11:22:34;96749.31;;;-1.37;100.00
32933;BME280;19444;50.518;10.870;2023-02-26T11:25:33;96758.75;;;-1.18;100.00
32933;BME280;19444;50.518;10.870;2023-02-26T11:28:41;96751.78;;;-1.12;100.00
32933;BME280;19444;50.518;10.870;2023-02-26T11:31:38;96755.78;;;-0.87;100.00
32933;BME280;19444;50.518;10.870;2023-02-26T11:34:37;96748.03;;;-0.81;100.00
32933;BME280;19444;50.518;10.870;2023-02-26T11:37:38;96747.97;;;-0.46;100.00
32933;BME280;19444;50.518;10.870;2023-02-26T11:40:41;96747.84;;;-0.28;100.00
32933;BME280;19444;50.518;10.870;2023-02-26T11:43:59;96751.56;;;-0.52;100.00
32933;BME280;19444;50.518;10.870;2023-02-26T11:46:57;96751.59;;;-0.12;100.00
32933;BME280;19444;50.518;10.870;2023-02-26T11:50:02;96746.75;;;-0.04;100.00
32933;BME280;19444;50.518;10.870;2023-02-26T11:53:14;96743.31;;;-0.04;100.00
32933;BME280;19444;50.518;10.870;2023-02-26T11:56:25;96743.16;;;0.14;100.00
32933;BME280;19444;50.518;10.870;2023-02-26T11:59:24;96742.81;;;-0.18;100.00
32933;BME280;19444;50.518;10.870;2023-02-26T12:02:25;96744.59;;;-0.70;100.00
32933;BME280;19444;50.518;10.870;2023-02-26T12:05:23;96744.22;;;-0.74;100.00
32933;BME280;19444;50.518;10.870;2023-02-26T12:08:33;96750.41;;;-0.92;100.00
32933;BME280;19444;50.518;10.870;2023-02-26T12:12:00;96756.03;;;-0.88;100.00
32933;BME280;19444;50.518;10.870;2023-02-26T12:15:38;96755.81;;;-0.63;100.00
32933;BME280;19444;50.518;10.870;2023-02-26T12:19:10;96760.47;;;-0.42;100.00
32933;BME280;19444;50.518;10.870;2023-02-26T12:22:47;96747.06;;;0.12;100.00
32933;BME280;19444;50.518;10.870;2023-02-26T12:43:46;96748.22;;;-0.36;100.00
32933;BME280;19444;50.518;10.870;2023-02-26T12:54:12;96742.88;;;0.56;100.00
32933;BME280;19444;50.518;10.870;2023-02-26T13:12:29;96751.47;;;0.23;100.00
32933;BME280;19444;50.518;10.870;2023-02-26T13:20:02;96753.91;;;-0.28;100.00
32933;BME280;19444;50.518;10.870;2023-02-26T13:23:13;96753.69;;;-0.26;100.00
32933;BME280;19444;50.518;10.870;2023-02-26T13:26:13;96758.13;;;-0.15;100.00
32933;BME280;19444;50.518;10.870;2023-02-26T13:29:24;96764.16;;;-0.54;100.00
32933;BME280;19444;50.518;10.870;2023-02-26T13:32:25;96772.25;;;-0.56;100.00
32933;BME280;19444;50.518;10.870;2023-02-26T13:35:32;96767.59;;;-0.54;100.00
32933;BME280;19444;50.518;10.870;2023-02-26T13:42:13;96758.31;;;-0.80;100.00
32933;BME280;19444;50.518;10.870;2023-02-26T13:45:42;96759.19;;;0.13;100.00
32933;BME280;19444;50.518;10.870;2023-02-26T13:52:26;96765.56;;;0.00;100.00
32933;BME280;19444;50.518;10.870;2023-02-26T13:55:45;96750.03;;;-0.37;100.00
32933;BME280;19444;50.518;10.870;2023-02-26T13:58:51;96758.53;;;-0.35;100.00
32933;BME280;19444;50.518;10.870;2023-02-26T14:01:54;96767.25;;;-0.69;100.00
32933;BME280;19444;50.518;10.870;2023-02-26T14:04:58;96765.16;;;-0.44;100.00
32933;BME280;19444;50.518;10.870;2023-02-26T14:17:25;96771.59;;;-0.63;100.00
32933;BME280;19444;50.518;10.870;2023-02-26T14:20:29;96778.06;;;-1.01;100.00
32933;BME280;19444;50.518;10.870;2023-02-26T14:23:35;96791.44;;;-1.26;100.00
32933;BME280;19444;50.518;10.870;2023-02-26T14:26:35;96790.97;;;-1.23;100.00
32933;BME280;19444;50.518;10.870;2023-02-26T14:35:54;96789.50;;;-1.19;100.00
32933;BME280;19444;50.518;10.870;2023-02-26T14:38:59;96803.09;;;-1.22;100.00
32933;BME280;19444;50.518;10.870;2023-02-26T14:42:05;96799.06;;;-1.36;100.00
32933;BME280;19444;50.518;10.870;2023-02-26T14:48:16;96808.19;;;-1.38;100.00
32933;BME280;19444;50.518;10.870;2023-02-26T14:51:31;96801.22;;;-1.33;100.00
32933;BME280;19444;50.518;10.870;2023-02-26T15:09:08;96807.47;;;-1.04;100.00
32933;BME280;19444;50.518;10.870;2023-02-26T15:12:51;96815.59;;;-0.94;100.00
32933;BME280;19444;50.518;10.870;2023-02-26T15:23:05;96821.41;;;-1.03;100.00
32933;BME280;19444;50.518;10.870;2023-02-26T15:26:11;96817.09;;;-1.09;100.00
32933;BME280;19444;50.518;10.870;2023-02-26T15:29:12;96834.09;;;-1.12;100.00
32933;BME280;19444;50.518;10.870;2023-02-26T15:32:25;96833.53;;;-1.14;100.00
32933;BME280;19444;50.518;10.870;2023-02-26T15:35:23;96832.16;;;-1.05;100.00
32933;BME280;19444;50.518;10.870;2023-02-26T15:38:23;96841.06;;;-1.18;100.00
32933;BME280;19444;50.518;10.870;2023-02-26T15:41:21;96843.19;;;-1.56;100.00
32933;BME280;19444;50.518;10.870;2023-02-26T15:44:29;96843.84;;;-1.42;100.00
32933;BME280;19444;50.518;10.870;2023-02-26T15:47:28;96845.22;;;-1.88;100.00
32933;BME280;19444;50.518;10.870;2023-02-26T15:50:31;96835.91;;;-1.54;100.00
32933;BME280;19444;50.518;10.870;2023-02-26T15:53:43;96840.22;;;-1.60;100.00
32933;BME280;19444;50.518;10.870;2023-02-26T15:56:41;96839.28;;;-1.84;100.00
32933;BME280;19444;50.518;10.870;2023-02-26T15:59:48;96844.41;;;-1.89;100.00
32933;BME280;19444;50.518;10.870;2023-02-26T16:02:48;96858.06;;;-1.98;100.00
32933;BME280;19444;50.518;10.870;2023-02-26T16:05:47;96853.59;;;-1.98;100.00
32933;BME280;19444;50.518;10.870;2023-02-26T16:08:44;96851.28;;;-2.06;100.00
32933;BME280;19444;50.518;10.870;2023-02-26T16:11:43;96856.22;;;-1.61;100.00
32933;BME280;19444;50.518;10.870;2023-02-26T16:14:48;96857.47;;;-1.82;100.00
32933;BME280;19444;50.518;10.870;2023-02-26T16:17:48;96857.78;;;-1.42;100.00
32933;BME280;19444;50.518;10.870;2023-02-26T16:20:49;96851.91;;;-1.74;100.00
32933;BME280;19444;50.518;10.870;2023-02-26T16:23:50;96859.66;;;-1.79;100.00
32933;BME280;19444;50.518;10.870;2023-02-26T16:26:53;96862.28;;;-1.79;100.00
32933;BME280;19444;50.518;10.870;2023-02-26T16:29:56;96863.66;;;-1.77;100.00
32933;BME280;19444;50.518;10.870;2023-02-26T16:32:53;96877.69;;;-1.83;100.00
32933;BME280;19444;50.518;10.870;2023-02-26T16:42:20;96897.34;;;-2.28;100.00
32933;BME280;19444;50.518;10.870;2023-02-26T16:48:46;96896.16;;;-2.58;100.00
32933;BME280;19444;50.518;10.870;2023-02-26T16:51:44;96896.41;;;-2.66;100.00
32933;BME280;19444;50.518;10.870;2023-02-26T16:54:47;96904.00;;;-2.51;100.00
32933;BME280;19444;50.518;10.870;2023-02-26T16:57:47;96902.16;;;-2.50;100.00
32933;BME280;19444;50.518;10.870;2023-02-26T17:00:48;96901.00;;;-2.54;100.00
32933;BME280;19444;50.518;10.870;2023-02-26T17:03:55;96899.75;;;-2.77;100.00
32933;BME280;19444;50.518;10.870;2023-02-26T17:06:54;96904.41;;;-2.79;100.00
32933;BME280;19444;50.518;10.870;2023-02-26T17:09:57;96898.47;;;-2.68;100.00
32933;BME280;19444;50.518;10.870;2023-02-26T17:13:17;96899.13;;;-2.72;100.00
32933;BME280;19444;50.518;10.870;2023-02-26T17:16:14;96908.78;;;-2.98;100.00
32933;BME280;19444;50.518;10.870;2023-02-26T17:19:12;96900.56;;;-3.08;100.00
32933;BME280;19444;50.518;10.870;2023-02-26T17:22:14;96903.94;;;-2.69;100.00
32933;BME280;19444;50.518;10.870;2023-02-26T17:25:17;96914.16;;;-2.61;100.00
32933;BME280;19444;50.518;10.870;2023-02-26T17:28:24;96921.13;;;-3.11;100.00
32933;BME280;19444;50.518;10.870;2023-02-26T17:31:22;96926.28;;;-2.92;100.00
32933;BME280;19444;50.518;10.870;2023-02-26T17:34:20;96926.13;;;-3.03;100.00
32933;BME280;19444;50.518;10.870;2023-02-26T17:37:17;96932.69;;;-3.19;100.00
32933;BME280;19444;50.518;10.870;2023-02-26T17:40:25;96935.41;;;-3.01;100.00
32933;BME280;19444;50.518;10.870;2023-02-26T17:43:24;96941.41;;;-3.32;100.00
32933;BME280;19444;50.518;10.870;2023-02-26T17:46:21;96945.28;;;-3.41;100.00
32933;BME280;19444;50.518;10.870;2023-02-26T17:49:18;96945.34;;;-3.61;100.00
32933;BME280;19444;50.518;10.870;2023-02-26T17:52:15;96960.84;;;-3.59;100.00
32933;BME280;19444;50.518;10.870;2023-02-26T17:55:12;96958.59;;;-3.49;100.00
32933;BME280;19444;50.518;10.870;2023-02-26T17:58:35;96957.22;;;-3.07;100.00